Time;durP1;ratioP1;P1;durP2;ratioP2;P2;SDS_P1;SDS_P2;PMS_P1;PMS_P2;Temp;Humidity;BMP_temperature;BMP_pressure;BME280_temperature;BME280_humidity;BME280_pressure;Samples;Min_cycle;Max_cycle;Signal;HPM_P1;HPM_P2
2021/12/01 00:00:23;;;;;;;84.25;25.75;;;;;;;;;;5032466;28;20046;-66
2021/12/01 00:02:53;;;;;;;76.35;23.27;;;;;;;;;;5033860;28;20083;-68
2021/12/01 00:05:20;;;;;;;82.20;24.65;;;;;;;;;;5045436;28;20052;-68
2021/12/01 00:07:46;;;;;;;81.68;24.15;;;;;;;;;;5040237;28;20045;-67
2021/12/01 00:10:12;;;;;;;84.20;24.50;;;;;;;;;;5033888;28;20045;-69
2021/12/01 00:12:38;;;;;;;101.55;27.02;;;;;;;;;;5032939;28;20136;-67
2021/12/01 00:15:07;;;;;;;79.40;24.40;;;;;;;;;;5039502;28;20041;-67
2021/12/01 00:17:33;;;;;;;103.72;28.17;;;;;;;;;;5052324;28;20064;-66
2021/12/01 00:19:59;;;;;;;84.10;26.08;;;;;;;;;;5034605;28;20501;-65
2021/12/01 00:22:26;;;;;;;83.57;26.63;;;;;;;;;;5032941;28;20124;-67
2021/12/01 00:24:52;;;;;;;80.82;28.35;;;;;;;;;;5033291;28;20041;-67
2021/12/01 00:27:18;;;;;;;83.80;28.58;;;;;;;;;;5031371;28;20136;-69
2021/12/01 00:29:44;;;;;;;103.47;32.90;;;;;;;;;;5032989;28;20050;-67
2021/12/01 00:32:10;;;;;;;142.85;35.75;;;;;;;;;;5033144;28;20049;-66
2021/12/01 00:34:37;;;;;;;102.15;34.28;;;;;;;;;;5032944;28;20052;-66
2021/12/01 00:37:03;;;;;;;107.40;34.20;;;;;;;;;;5032994;28;20497;-67
2021/12/01 00:39:29;;;;;;;146.82;40.42;;;;;;;;;;5032047;28;20064;-67
2021/12/01 00:41:56;;;;;;;120.32;37.35;;;;;;;;;;5033184;28;20053;-66
2021/12/01 00:44:23;;;;;;;109.35;38.22;;;;;;;;;;5031942;28;20108;-68
2021/12/01 00:46:56;;;;;;;;;;;;;;;;;;5033256;28;20058;-69
2021/12/01 00:49:23;;;;;;;152.70;46.60;;;;;;;;;;5032014;28;20385;-70
2021/12/01 00:51:49;;;;;;;151.23;46.13;;;;;;;;;;5032369;28;20049;-68
2021/12/01 00:54:17;;;;;;;125.95;43.65;;;;;;;;;;5031369;28;20412;-66
2021/12/01 00:56:44;;;;;;;124.65;44.90;;;;;;;;;;5032251;28;20077;-66
2021/12/01 00:59:10;;;;;;;136.60;45.45;;;;;;;;;;5015081;28;20049;-68
2021/12/01 01:01:36;;;;;;;118.93;43.90;;;;;;;;;;5031252;28;20102;-67
2021/12/01 01:04:03;;;;;;;116.85;46.13;;;;;;;;;;5031741;28;20052;-67
2021/12/01 01:06:29;;;;;;;98.88;40.47;;;;;;;;;;5031890;28;20053;-67
2021/12/01 01:08:55;;;;;;;118.53;43.53;;;;;;;;;;5032514;28;20042;-67
2021/12/01 01:16:51;;;;;;;81.30;36.90;;;;;;;;;;5032374;28;20068;-67
2021/12/01 01:19:18;;;;;;;90.20;37.58;;;;;;;;;;5032036;28;20057;-66
2021/12/01 01:21:48;;;;;;;71.53;33.38;;;;;;;;;;5031851;28;20049;-68
2021/12/01 01:24:15;;;;;;;84.93;34.50;;;;;;;;;;5032205;28;20421;-67
2021/12/01 01:26:41;;;;;;;67.65;33.13;;;;;;;;;;5014265;28;20042;-66
2021/12/01 01:29:07;;;;;;;72.45;32.80;;;;;;;;;;5032563;28;20584;-67
2021/12/01 01:31:33;;;;;;;77.05;33.92;;;;;;;;;;5031329;28;20049;-70
2021/12/01 01:34:00;;;;;;;72.88;33.42;;;;;;;;;;5032211;28;20397;-67
2021/12/01 01:36:26;;;;;;;;;;;;;;;;;;5031273;28;20038;-70
2021/12/01 01:38:55;;;;;;;65.68;31.27;;;;;;;;;;5031309;28;19969;-68
2021/12/01 01:41:22;;;;;;;65.57;28.73;;;;;;;;;;4997994;28;20049;-67
2021/12/01 01:43:49;;;;;;;58.90;26.92;;;;;;;;;;5031292;28;20046;-67
2021/12/01 01:46:16;;;;;;;53.67;26.85;;;;;;;;;;5031588;28;20041;-66
2021/12/01 01:48:47;;;;;;;;;;;;;;;;;;5031791;28;20051;-66
2021/12/01 01:51:13;;;;;;;62.92;26.55;;;;;;;;;;5031749;28;19975;-66
2021/12/01 01:53:39;;;;;;;;;;;;;;;;;;5031639;28;20045;-66
2021/12/01 01:56:06;;;;;;;48.83;22.52;;;;;;;;;;5031513;28;19928;-66
2021/12/01 01:58:32;;;;;;;38.75;19.75;;;;;;;;;;5030655;28;20080;-67
2021/12/01 02:01:07;;;;;;;;;;;;;;;;;;5032120;28;20042;-66
2021/12/01 02:03:41;;;;;;;47.30;20.58;;;;;;;;;;5031707;28;19924;-65
2021/12/01 02:06:09;;;;;;;43.13;17.63;;;;;;;;;;5032018;28;20052;-66
2021/12/01 02:08:37;;;;;;;32.20;15.80;;;;;;;;;;5030908;28;20128;-68
2021/12/01 02:11:06;;;;;;;34.60;13.95;;;;;;;;;;5031310;28;20053;-69
2021/12/01 02:13:33;;;;;;;35.20;13.43;;;;;;;;;;5031476;28;20514;-65
2021/12/01 02:16:00;;;;;;;28.90;12.02;;;;;;;;;;5030906;28;20440;-66
2021/12/01 02:18:27;;;;;;;25.02;9.70;;;;;;;;;;5013263;28;20494;-66
2021/12/01 02:21:00;;;;;;;28.90;10.13;;;;;;;;;;5029858;28;20286;-66
2021/12/01 02:23:26;;;;;;;25.10;10.15;;;;;;;;;;5035746;28;20046;-71
2021/12/01 02:25:52;;;;;;;26.67;8.55;;;;;;;;;;5035056;28;20486;-66
2021/12/01 02:28:18;;;;;;;32.78;8.88;;;;;;;;;;5033823;28;20427;-66
2021/12/01 02:30:45;;;;;;;24.45;8.20;;;;;;;;;;5034616;28;20049;-66
2021/12/01 02:33:11;;;;;;;17.35;6.32;;;;;;;;;;5035010;28;20049;-65
2021/12/01 02:35:37;;;;;;;20.35;6.32;;;;;;;;;;5034863;28;20041;-66
2021/12/01 02:38:04;;;;;;;17.98;6.03;;;;;;;;;;5035146;28;20486;-67
2021/12/01 02:40:30;;;;;;;15.57;5.55;;;;;;;;;;5034353;28;20512;-66
2021/12/01 02:42:56;;;;;;;;;;;;;;;;;;5034904;28;20049;-68
2021/12/01 02:45:22;;;;;;;15.15;4.72;;;;;;;;;;5035487;28;19921;-67
2021/12/01 02:47:48;;;;;;;15.98;4.97;;;;;;;;;;5034928;28;20379;-68
2021/12/01 02:50:15;;;;;;;17.90;5.80;;;;;;;;;;5034544;28;20050;-67
2021/12/01 02:52:41;;;;;;;16.90;5.47;;;;;;;;;;5034076;28;20053;-68
2021/12/01 02:55:09;;;;;;;20.08;5.63;;;;;;;;;;5034275;28;20049;-67
2021/12/01 02:57:45;;;;;;;18.02;5.40;;;;;;;;;;5035887;28;20049;-69
2021/12/01 03:00:11;;;;;;;20.92;5.88;;;;;;;;;;5032478;28;20505;-68
2021/12/01 03:02:38;;;;;;;15.60;5.20;;;;;;;;;;5051450;28;20044;-70
2021/12/01 03:05:05;;;;;;;19.13;5.35;;;;;;;;;;5038059;28;20045;-67
2021/12/01 03:07:35;;;;;;;16.58;4.57;;;;;;;;;;5035226;28;20128;-64
2021/12/01 03:10:01;;;;;;;16.60;4.65;;;;;;;;;;5039857;28;20132;-67
2021/12/01 03:12:31;;;;;;;15.25;3.55;;;;;;;;;;5020822;28;20048;-67
2021/12/01 03:14:57;;;;;;;14.43;4.68;;;;;;;;;;5014557;28;20504;-68
2021/12/01 03:17:26;;;;;;;14.27;4.35;;;;;;;;;;5029817;28;20049;-69
2021/12/01 03:19:53;;;;;;;14.68;3.55;;;;;;;;;;5034350;28;20049;-70
2021/12/01 03:22:19;;;;;;;19.63;5.07;;;;;;;;;;5042916;28;20051;-68
2021/12/01 03:24:45;;;;;;;18.25;4.30;;;;;;;;;;5053830;28;20098;-66
2021/12/01 03:27:11;;;;;;;18.58;4.32;;;;;;;;;;5054861;28;20401;-66
2021/12/01 03:29:37;;;;;;;16.10;4.22;;;;;;;;;;5025577;28;20362;-66
2021/12/01 03:32:03;;;;;;;14.75;3.75;;;;;;;;;;5036083;28;20060;-70
2021/12/01 03:34:30;;;;;;;15.93;4.35;;;;;;;;;;5054505;28;20071;-66
2021/12/01 03:36:57;;;;;;;16.83;4.47;;;;;;;;;;5033738;28;20045;-69
2021/12/01 03:39:24;;;;;;;18.33;5.05;;;;;;;;;;5049452;28;20053;-66
2021/12/01 03:41:50;;;;;;;22.10;4.53;;;;;;;;;;5031768;28;20099;-67
2021/12/01 03:44:16;;;;;;;19.13;4.60;;;;;;;;;;5014890;28;20042;-64
2021/12/01 03:46:42;;;;;;;21.55;5.47;;;;;;;;;;5014178;28;20042;-76
2021/12/01 03:49:08;;;;;;;27.48;4.63;;;;;;;;;;5017856;28;20128;-69
2021/12/01 03:51:34;;;;;;;21.20;5.03;;;;;;;;;;5040034;28;20045;-70
2021/12/01 03:54:00;;;;;;;17.48;3.95;;;;;;;;;;5034403;28;20458;-68
2021/12/01 03:56:26;;;;;;;24.30;4.38;;;;;;;;;;5034242;28;20046;-68
2021/12/01 03:58:53;;;;;;;24.48;4.93;;;;;;;;;;5033474;28;20049;-62
2021/12/01 04:01:20;;;;;;;19.35;4.78;;;;;;;;;;5032678;28;20053;-65
2021/12/01 04:03:46;;;;;;;25.73;5.35;;;;;;;;;;5032218;28;20485;-83
2021/12/01 04:06:12;;;;;;;26.65;5.13;;;;;;;;;;5015967;28;20041;-68
2021/12/01 04:08:38;;;;;;;30.65;5.50;;;;;;;;;;5034022;28;20402;-66
2021/12/01 04:11:04;;;;;;;31.77;4.97;;;;;;;;;;5032812;28;20049;-67
2021/12/01 04:13:30;;;;;;;30.35;5.78;;;;;;;;;;5048164;28;20053;-67
2021/12/01 04:15:56;;;;;;;26.50;5.40;;;;;;;;;;5033108;28;20132;-65
2021/12/01 04:18:22;;;;;;;22.13;5.28;;;;;;;;;;5033528;28;20053;-68
2021/12/01 04:20:48;;;;;;;29.65;5.38;;;;;;;;;;5032295;28;20042;-69
2021/12/01 04:23:14;;;;;;;28.00;5.10;;;;;;;;;;5032898;28;20628;-65
2021/12/01 04:25:40;;;;;;;22.58;5.13;;;;;;;;;;5032431;28;20076;-65
2021/12/01 04:28:07;;;;;;;20.08;5.22;;;;;;;;;;5032877;28;20140;-67
2021/12/01 04:30:33;;;;;;;;;;;;;;;;;;5033536;28;20037;-68
2021/12/01 04:32:59;;;;;;;23.17;5.85;;;;;;;;;;5032822;28;19921;-68
2021/12/01 04:35:27;;;;;;;;;;;;;;;;;;5029963;28;20038;-65
2021/12/01 04:37:53;;;;;;;23.23;5.13;;;;;;;;;;5032851;28;19921;-64
2021/12/01 04:40:20;;;;;;;22.60;5.22;;;;;;;;;;5032957;28;20052;-68
2021/12/01 04:42:46;;;;;;;27.38;6.07;;;;;;;;;;5032005;28;20068;-65
2021/12/01 04:45:17;;;;;;;17.20;5.13;;;;;;;;;;5032020;28;20045;-65
2021/12/01 04:47:54;;;;;;;15.23;5.03;;;;;;;;;;5031708;28;20049;-68
2021/12/01 04:50:22;;;;;;;16.90;5.63;;;;;;;;;;5015443;28;20054;-68
2021/12/01 04:52:48;;;;;;;18.13;5.65;;;;;;;;;;5033152;28;20133;-69
2021/12/01 04:55:14;;;;;;;;;;;;;;;;;;5032296;28;20052;-70
2021/12/01 04:57:44;;;;;;;16.38;5.32;;;;;;;;;;5031178;28;19921;-69
2021/12/01 05:00:11;;;;;;;15.50;5.65;;;;;;;;;;5028480;28;20048;-69
2021/12/01 05:02:37;;;;;;;16.55;5.78;;;;;;;;;;5032419;28;20045;-69
2021/12/01 05:05:04;;;;;;;17.25;6.65;;;;;;;;;;5031924;28;20118;-68
2021/12/01 05:07:30;;;;;;;15.88;6.57;;;;;;;;;;5032016;28;20176;-67
2021/12/01 05:09:56;;;;;;;16.67;5.97;;;;;;;;;;5031806;28;20512;-68
2021/12/01 05:12:22;;;;;;;12.45;5.97;;;;;;;;;;5032699;28;20072;-65
2021/12/01 05:14:49;;;;;;;24.40;6.40;;;;;;;;;;5032217;28;20116;-65
2021/12/01 05:17:15;;;;;;;11.95;5.00;;;;;;;;;;5031454;28;20057;-68
2021/12/01 05:19:41;;;;;;;13.68;5.00;;;;;;;;;;5032332;28;20049;-65
2021/12/01 05:22:07;;;;;;;10.63;4.22;;;;;;;;;;5032026;28;20049;-68
2021/12/01 05:24:33;;;;;;;9.77;3.53;;;;;;;;;;5014871;28;20045;-64
2021/12/01 05:27:00;;;;;;;10.05;3.58;;;;;;;;;;5030957;28;20045;-65
2021/12/01 05:29:26;;;;;;;10.02;3.10;;;;;;;;;;5032094;28;20103;-63
2021/12/01 05:31:53;;;;;;;8.18;2.70;;;;;;;;;;5031808;28;20103;-66
2021/12/01 05:34:20;;;;;;;6.32;2.58;;;;;;;;;;5014325;28;20096;-63
2021/12/01 05:36:46;;;;;;;8.70;2.70;;;;;;;;;;5032499;28;20045;-65
2021/12/01 05:39:12;;;;;;;;;;;;;;;;;;5031310;28;20136;-67
2021/12/01 05:41:38;;;;;;;8.05;2.50;;;;;;;;;;5032227;28;20004;-65
2021/12/01 05:44:04;;;;;;;8.45;2.50;;;;;;;;;;5014126;28;20053;-65
2021/12/01 05:46:31;;;;;;;7.97;2.70;;;;;;;;;;5031457;28;20049;-63
2021/12/01 05:48:57;;;;;;;9.65;2.90;;;;;;;;;;5031914;28;20045;-69
2021/12/01 05:51:23;;;;;;;5.28;2.30;;;;;;;;;;5031699;28;20045;-66
2021/12/01 05:53:50;;;;;;;7.53;3.15;;;;;;;;;;5031709;28;20482;-66
2021/12/01 05:56:16;;;;;;;11.25;3.70;;;;;;;;;;5031898;28;20045;-63
2021/12/01 05:58:42;;;;;;;14.20;3.95;;;;;;;;;;5036949;28;20049;-67
2021/12/01 06:01:08;;;;;;;;;;;;;;;;;;5035283;28;20045;-66
2021/12/01 06:03:34;;;;;;;11.48;4.68;;;;;;;;;;5016827;28;20282;-66
2021/12/01 06:06:01;;;;;;;13.40;4.95;;;;;;;;;;5016017;28;20042;-70
2021/12/01 06:08:27;;;;;;;;;;;;;;;;;;5027706;28;20042;-65
2021/12/01 06:10:53;;;;;;;10.50;4.63;;;;;;;;;;5035469;28;19928;-63
2021/12/01 06:13:20;;;;;;;11.30;4.68;;;;;;;;;;5034522;28;20917;-64
2021/12/01 06:15:50;;;;;;;11.50;4.85;;;;;;;;;;5034448;28;20056;-65
2021/12/01 06:18:16;;;;;;;10.57;4.75;;;;;;;;;;5017192;28;20064;-64
2021/12/01 06:20:42;;;;;;;10.18;4.30;;;;;;;;;;5035369;28;20038;-65
2021/12/01 06:23:09;;;;;;;9.35;4.20;;;;;;;;;;5034993;28;20045;-67
2021/12/01 06:25:35;;;;;;;11.20;4.55;;;;;;;;;;5035464;28;20049;-67
2021/12/01 06:28:01;;;;;;;;;;;;;;;;;;5018310;28;20064;-72
2021/12/01 06:30:31;;;;;;;13.27;4.30;;;;;;;;;;5035146;28;19921;-66
2021/12/01 06:32:57;;;;;;;9.45;3.90;;;;;;;;;;5034870;28;20489;-64
2021/12/01 06:35:23;;;;;;;9.43;4.25;;;;;;;;;;5017094;28;20045;-65
2021/12/01 06:37:50;;;;;;;9.00;3.35;;;;;;;;;;5017904;28;20053;-69
2021/12/01 06:40:17;;;;;;;10.57;3.78;;;;;;;;;;5034880;28;20596;-75
2021/12/01 06:42:43;;;;;;;10.52;4.05;;;;;;;;;;5034398;28;20057;-68
2021/12/01 06:45:10;;;;;;;11.05;3.95;;;;;;;;;;5034314;28;20405;-67
2021/12/01 06:47:37;;;;;;;8.50;3.13;;;;;;;;;;5035345;28;20504;-67
2021/12/01 06:50:04;;;;;;;8.52;3.50;;;;;;;;;;5035564;28;20049;-66
2021/12/01 06:52:30;;;;;;;10.13;3.70;;;;;;;;;;5031769;28;20045;-67
2021/12/01 06:54:59;;;;;;;9.57;3.90;;;;;;;;;;5014752;28;20042;-67
2021/12/01 06:57:26;;;;;;;9.43;3.92;;;;;;;;;;5034439;28;20053;-68
2021/12/01 06:59:52;;;;;;;;;;;;;;;;;;5029067;28;20058;-69
2021/12/01 07:02:18;;;;;;;9.35;3.95;;;;;;;;;;5034044;28;19925;-70
2021/12/01 07:04:45;;;;;;;13.85;4.28;;;;;;;;;;5013526;28;21431;-69
2021/12/01 07:07:11;;;;;;;10.23;3.97;;;;;;;;;;5033029;28;20378;-68
2021/12/01 07:09:37;;;;;;;11.45;4.80;;;;;;;;;;5025518;28;20057;-65
2021/12/01 07:12:04;;;;;;;16.55;5.70;;;;;;;;;;5031830;28;20052;-70
2021/12/01 07:14:30;;;;;;;10.52;4.80;;;;;;;;;;5031722;28;20567;-66
2021/12/01 07:16:56;;;;;;;10.95;4.57;;;;;;;;;;5034668;28;20107;-67
2021/12/01 07:19:22;;;;;;;11.07;4.70;;;;;;;;;;5033658;28;20422;-67
2021/12/01 07:21:48;;;;;;;11.73;5.13;;;;;;;;;;5034424;28;20048;-71
2021/12/01 07:24:16;;;;;;;11.75;5.70;;;;;;;;;;5033533;28;20054;-67
2021/12/01 07:26:42;;;;;;;13.85;6.15;;;;;;;;;;5034786;28;20053;-68
2021/12/01 07:29:09;;;;;;;13.25;5.82;;;;;;;;;;5033965;28;20048;-69
2021/12/01 07:31:35;;;;;;;13.75;6.57;;;;;;;;;;5034112;28;20124;-67
2021/12/01 07:34:01;;;;;;;12.05;5.82;;;;;;;;;;5034489;28;20048;-65
2021/12/01 07:36:27;;;;;;;12.77;6.45;;;;;;;;;;5031829;28;20033;-70
2021/12/01 07:38:53;;;;;;;14.50;6.63;;;;;;;;;;5033457;28;20080;-68
2021/12/01 07:41:20;;;;;;;16.05;6.65;;;;;;;;;;5033599;28;20045;-70
2021/12/01 07:43:47;;;;;;;15.27;7.13;;;;;;;;;;5034390;28;20045;-68
2021/12/01 07:46:14;;;;;;;15.40;6.22;;;;;;;;;;5033623;28;20508;-70
2021/12/01 07:48:40;;;;;;;13.98;6.53;;;;;;;;;;5031294;28;20046;-70
2021/12/01 07:51:06;;;;;;;15.93;6.72;;;;;;;;;;5017227;28;20046;-69
2021/12/01 07:53:32;;;;;;;15.77;7.65;;;;;;;;;;5025627;28;20297;-67
2021/12/01 07:55:58;;;;;;;16.48;7.00;;;;;;;;;;5033383;28;20102;-68
2021/12/01 07:58:24;;;;;;;17.73;7.68;;;;;;;;;;5033490;28;20049;-68
2021/12/01 08:00:50;;;;;;;16.45;7.03;;;;;;;;;;5032109;28;20057;-65
2021/12/01 08:03:16;;;;;;;20.92;8.10;;;;;;;;;;5033255;28;20463;-69
2021/12/01 08:05:42;;;;;;;15.10;7.00;;;;;;;;;;5033733;28;20133;-69
2021/12/01 08:08:10;;;;;;;17.20;7.80;;;;;;;;;;5033584;28;20049;-68
2021/12/01 08:10:36;;;;;;;20.45;8.10;;;;;;;;;;5032302;28;20061;-67
2021/12/01 08:13:04;;;;;;;18.98;7.68;;;;;;;;;;5033590;28;20046;-69
2021/12/01 08:15:30;;;;;;;18.17;7.57;;;;;;;;;;5033266;28;20042;-67
2021/12/01 08:17:59;;;;;;;16.98;7.45;;;;;;;;;;5033073;28;20065;-67
2021/12/01 08:20:25;;;;;;;19.73;8.20;;;;;;;;;;5031604;28;20136;-66
2021/12/01 08:22:51;;;;;;;17.00;7.65;;;;;;;;;;5032850;28;20124;-64
2021/12/01 08:25:21;;;;;;;18.92;8.27;;;;;;;;;;5015373;28;20553;-65
2021/12/01 08:27:47;;;;;;;20.70;8.32;;;;;;;;;;5032823;28;20045;-69
2021/12/01 08:30:13;;;;;;;18.17;8.13;;;;;;;;;;5009866;28;20429;-69
2021/12/01 08:32:45;;;;;;;22.67;9.07;;;;;;;;;;5031920;28;20041;-69
2021/12/01 08:35:11;;;;;;;17.48;7.00;;;;;;;;;;5032219;28;20050;-66
2021/12/01 08:37:37;;;;;;;18.33;7.03;;;;;;;;;;5014798;28;20119;-66
2021/12/01 08:40:03;;;;;;;12.23;4.85;;;;;;;;;;5032882;28;20049;-65
2021/12/01 08:42:30;;;;;;;10.48;4.13;;;;;;;;;;5023020;28;20045;-64
2021/12/01 08:44:56;;;;;;;10.50;3.75;;;;;;;;;;5030769;28;20037;-69
2021/12/01 08:47:26;;;;;;;12.27;4.22;;;;;;;;;;5032453;28;20128;-68
2021/12/01 08:49:52;;;;;;;12.73;3.30;;;;;;;;;;5015544;28;20041;-66
2021/12/01 08:52:19;;;;;;;15.65;3.78;;;;;;;;;;5033229;28;20472;-65
2021/12/01 08:54:45;;;;;;;;;;;;;;;;;;5033003;28;20099;-67
2021/12/01 08:57:11;;;;;;;18.65;3.47;;;;;;;;;;5033004;28;19925;-67
2021/12/01 08:59:39;;;;;;;11.43;3.17;;;;;;;;;;5032372;28;20049;-67
2021/12/01 09:02:05;;;;;;;16.80;3.38;;;;;;;;;;5031679;28;20478;-65
2021/12/01 09:04:31;;;;;;;17.98;3.63;;;;;;;;;;5014835;28;20397;-69
2021/12/01 09:07:01;;;;;;;18.70;3.70;;;;;;;;;;5032009;28;20054;-64
2021/12/01 09:09:27;;;;;;;17.40;3.33;;;;;;;;;;5014197;28;20065;-77
2021/12/01 09:11:54;;;;;;;23.52;3.20;;;;;;;;;;5032487;28;20120;-64
2021/12/01 09:14:20;;;;;;;;;;;;;;;;;;5033399;28;20128;-66
2021/12/01 09:16:46;;;;;;;12.38;2.63;;;;;;;;;;5031619;28;19971;-65
2021/12/01 09:19:12;;;;;;;19.38;3.05;;;;;;;;;;5032606;28;20416;-65
2021/12/01 09:21:39;;;;;;;11.93;3.13;;;;;;;;;;5028843;28;20065;-68
2021/12/01 09:24:05;;;;;;;12.95;2.63;;;;;;;;;;5040389;28;20382;-67
2021/12/01 09:26:32;;;;;;;15.68;3.42;;;;;;;;;;5051732;28;20572;-69
2021/12/01 09:28:58;;;;;;;12.68;2.35;;;;;;;;;;5037313;28;20406;-67
2021/12/01 09:31:25;;;;;;;13.35;2.85;;;;;;;;;;5031929;28;20460;-65
2021/12/01 09:33:51;;;;;;;13.68;2.67;;;;;;;;;;5028820;28;20052;-64
2021/12/01 09:36:17;;;;;;;19.33;3.28;;;;;;;;;;5013548;28;20179;-67
2021/12/01 09:38:44;;;;;;;16.27;2.67;;;;;;;;;;5027313;28;20521;-66
2021/12/01 09:41:11;;;;;;;14.70;2.70;;;;;;;;;;5012712;28;20084;-65
2021/12/01 09:43:38;;;;;;;13.98;2.85;;;;;;;;;;5030480;28;20045;-66
2021/12/01 09:46:05;;;;;;;17.52;3.05;;;;;;;;;;5003897;28;21089;-67
2021/12/01 09:48:33;;;;;;;18.85;3.10;;;;;;;;;;5030675;28;20048;-64
2021/12/01 09:50:59;;;;;;;13.25;2.50;;;;;;;;;;5030799;28;20068;-69
2021/12/01 09:53:25;;;;;;;16.00;2.72;;;;;;;;;;5031281;28;20056;-65
2021/12/01 09:55:51;;;;;;;15.25;3.22;;;;;;;;;;5030592;28;20445;-67
2021/12/01 09:58:19;;;;;;;16.10;2.60;;;;;;;;;;5031539;28;20059;-68
2021/12/01 10:00:50;;;;;;;11.02;2.45;;;;;;;;;;5013138;28;20041;-65
2021/12/01 10:03:16;;;;;;;19.90;2.95;;;;;;;;;;5032236;28;20046;-73
2021/12/01 10:06:06;;;;;;;21.92;3.40;;;;;;;;;;5031004;28;20045;-66
2021/12/01 10:09:00;;;;;;;20.15;3.40;;;;;;;;;;5029579;28;20049;-66
2021/12/01 10:11:28;;;;;;;22.60;3.53;;;;;;;;;;5010441;28;20097;-66
2021/12/01 10:13:58;;;;;;;24.15;4.05;;;;;;;;;;5015471;28;20053;-69
2021/12/01 10:16:26;;;;;;;23.73;3.58;;;;;;;;;;5031130;28;20052;-66
2021/12/01 10:18:54;;;;;;;24.83;3.55;;;;;;;;;;5031159;28;20465;-68
2021/12/01 10:21:30;;;;;;;25.88;3.65;;;;;;;;;;5013836;28;20128;-67
2021/12/01 10:23:57;;;;;;;24.75;4.53;;;;;;;;;;5030467;28;20037;-65
2021/12/01 10:26:28;;;;;;;19.40;3.30;;;;;;;;;;5013482;28;20057;-65
2021/12/01 10:29:01;;;;;;;26.00;3.80;;;;;;;;;;5029828;28;20053;-66
2021/12/01 10:31:37;;;;;;;19.80;3.97;;;;;;;;;;5015135;28;20124;-66
2021/12/01 10:34:21;;;;;;;21.85;4.50;;;;;;;;;;5030228;28;20508;-64
2021/12/01 10:36:49;;;;;;;23.65;3.88;;;;;;;;;;5030419;28;20050;-65
2021/12/01 10:39:18;;;;;;;25.13;4.45;;;;;;;;;;5030936;28;20037;-66
2021/12/01 10:41:45;;;;;;;25.85;3.95;;;;;;;;;;5029976;28;20107;-69
2021/12/01 10:44:11;;;;;;;19.40;3.92;;;;;;;;;;5031348;28;20037;-66
2021/12/01 10:46:47;;;;;;;20.08;4.03;;;;;;;;;;5021241;28;20051;-70
2021/12/01 10:49:14;;;;;;;26.02;5.35;;;;;;;;;;5042604;28;20052;-70
2021/12/01 10:51:41;;;;;;;24.00;4.53;;;;;;;;;;5032477;28;20045;-71
2021/12/01 10:54:18;;;;;;;24.73;4.95;;;;;;;;;;5034667;28;20045;-68
2021/12/01 10:56:45;;;;;;;22.92;4.18;;;;;;;;;;5033680;28;20041;-69
2021/12/01 10:59:13;;;;;;;17.92;3.35;;;;;;;;;;5033676;28;20037;-69
2021/12/01 11:01:39;;;;;;;16.80;3.17;;;;;;;;;;5033545;28;20054;-65
2021/12/01 11:04:05;;;;;;;;;;;;;;;;;;5017076;28;20111;-69
2021/12/01 11:06:37;;;;;;;21.70;3.42;;;;;;;;;;5021988;28;20396;-72
2021/12/01 11:09:03;;;;;;;14.65;3.10;;;;;;;;;;5034277;28;20058;-68
2021/12/01 11:11:38;;;;;;;16.42;3.40;;;;;;;;;;5033978;28;20045;-68
2021/12/01 11:14:09;;;;;;;14.40;3.25;;;;;;;;;;5033751;28;20057;-68
2021/12/01 11:16:38;;;;;;;20.20;4.03;;;;;;;;;;5029419;28;20141;-65
2021/12/01 11:19:04;;;;;;;19.55;3.42;;;;;;;;;;5016771;28;20057;-66
2021/12/01 11:21:30;;;;;;;22.90;3.80;;;;;;;;;;5033713;28;20053;-65
2021/12/01 11:24:01;;;;;;;21.55;4.28;;;;;;;;;;5033406;28;20046;-67
2021/12/01 11:26:28;;;;;;;24.05;4.15;;;;;;;;;;5032574;28;20060;-67
2021/12/01 11:28:55;;;;;;;29.33;4.43;;;;;;;;;;5033193;28;20067;-66
2021/12/01 11:31:42;;;;;;;20.73;3.97;;;;;;;;;;5025060;28;20080;-65
2021/12/01 11:34:09;;;;;;;29.45;5.13;;;;;;;;;;5015088;28;20045;-67
2021/12/01 11:36:36;;;;;;;23.08;4.57;;;;;;;;;;5032396;28;20048;-67
2021/12/01 11:39:05;;;;;;;33.55;5.15;;;;;;;;;;5014486;28;20038;-66
2021/12/01 11:41:32;;;;;;;40.30;6.40;;;;;;;;;;5012780;28;20049;-65
2021/12/01 11:43:58;;;;;;;32.75;5.28;;;;;;;;;;5031577;28;20049;-67
2021/12/01 11:46:24;;;;;;;;;;;;;;;;;;5048907;28;20133;-65
2021/12/01 11:48:52;;;;;;;33.13;6.50;;;;;;;;;;5033192;28;20381;-70
2021/12/01 11:51:24;;;;;;;29.95;5.22;;;;;;;;;;5031403;28;20058;-69
2021/12/01 11:54:06;;;;;;;30.80;5.80;;;;;;;;;;5030701;28;20053;-66
2021/12/01 11:56:33;;;;;;;31.48;5.65;;;;;;;;;;5034417;28;20045;-70
2021/12/01 11:59:00;;;;;;;32.30;5.90;;;;;;;;;;5052189;28;20135;-69
2021/12/01 12:01:26;;;;;;;32.50;6.10;;;;;;;;;;5041614;28;20057;-66
2021/12/01 12:03:55;;;;;;;34.10;5.78;;;;;;;;;;5012222;28;20049;-66
2021/12/01 12:06:27;;;;;;;36.13;6.10;;;;;;;;;;5014300;28;20099;-72
2021/12/01 12:09:09;;;;;;;22.40;6.30;;;;;;;;;;5013872;28;20042;-69
2021/12/01 12:11:39;;;;;;;35.80;5.82;;;;;;;;;;5031930;28;20133;-65
2021/12/01 12:14:15;;;;;;;33.13;6.22;;;;;;;;;;5030481;28;20099;-67
2021/12/01 12:16:43;;;;;;;36.15;5.07;;;;;;;;;;5034635;28;20052;-65
2021/12/01 12:19:09;;;;;;;28.35;5.25;;;;;;;;;;5039805;28;20125;-66
2021/12/01 12:21:52;;;;;;;31.48;5.13;;;;;;;;;;5034050;28;20473;-68
2021/12/01 12:24:24;;;;;;;28.75;5.47;;;;;;;;;;5042322;28;20469;-65
2021/12/01 12:26:57;;;;;;;27.05;4.35;;;;;;;;;;5029173;28;20037;-66
2021/12/01 12:29:25;;;;;;;27.15;5.45;;;;;;;;;;5030995;28;20060;-70
2021/12/01 12:31:53;;;;;;;26.60;4.88;;;;;;;;;;5042775;28;20048;-66
2021/12/01 12:34:20;;;;;;;21.08;4.35;;;;;;;;;;5030919;28;20049;-70
2021/12/01 12:36:53;;;;;;;18.65;3.97;;;;;;;;;;5029614;28;20045;-69
2021/12/01 12:39:23;;;;;;;20.33;3.80;;;;;;;;;;5030358;28;20511;-69
2021/12/01 12:42:00;;;;;;;29.88;5.13;;;;;;;;;;5030491;28;20114;-66
2021/12/01 12:44:26;;;;;;;21.88;3.80;;;;;;;;;;5030733;28;20053;-68
2021/12/01 12:47:03;;;;;;;23.27;4.55;;;;;;;;;;5012496;28;20137;-68
2021/12/01 12:49:36;;;;;;;25.88;4.65;;;;;;;;;;5030602;28;20049;-73
2021/12/01 12:52:21;;;;;;;21.63;4.07;;;;;;;;;;5030517;28;20075;-66
2021/12/01 12:54:47;;;;;;;23.40;4.22;;;;;;;;;;5031122;28;20056;-68
2021/12/01 12:57:17;;;;;;;20.50;3.97;;;;;;;;;;5030578;28;20049;-63
2021/12/01 12:59:44;;;;;;;18.42;4.25;;;;;;;;;;5030996;28;20424;-65
2021/12/01 13:02:10;;;;;;;24.52;4.95;;;;;;;;;;5029733;28;20049;-65
2021/12/01 13:04:52;;;;;;;17.20;3.88;;;;;;;;;;5030815;28;20080;-62
2021/12/01 13:07:30;;;;;;;17.88;3.78;;;;;;;;;;5030791;28;20057;-64
2021/12/01 13:10:12;;;;;;;19.40;3.67;;;;;;;;;;5012658;28;20135;-64
2021/12/01 13:12:58;;;;;;;20.38;4.63;;;;;;;;;;5030725;28;20053;-69
2021/12/01 13:15:29;;;;;;;23.20;5.03;;;;;;;;;;5012309;28;20148;-69
2021/12/01 13:18:06;;;;;;;23.80;4.03;;;;;;;;;;5012049;28;20115;-66
2021/12/01 13:20:40;;;;;;;18.02;3.42;;;;;;;;;;5030051;28;20203;-70
2021/12/01 13:23:07;;;;;;;22.08;4.10;;;;;;;;;;5029898;28;20042;-64
2021/12/01 13:25:35;;;;;;;19.70;3.65;;;;;;;;;;5030283;28;20052;-64
2021/12/01 13:28:03;;;;;;;25.02;3.78;;;;;;;;;;5030137;28;20114;-65
2021/12/01 13:30:33;;;;;;;18.17;4.05;;;;;;;;;;5030067;28;20056;-66
2021/12/01 13:33:25;;;;;;;24.40;4.22;;;;;;;;;;5029019;28;20533;-70
2021/12/01 13:35:52;;;;;;;25.10;3.90;;;;;;;;;;5027356;28;20046;-65
2021/12/01 13:38:28;;;;;;;21.27;4.00;;;;;;;;;;5029752;28;20132;-63
2021/12/01 13:40:54;;;;;;;21.85;5.05;;;;;;;;;;5029751;28;20401;-65
2021/12/01 13:43:21;;;;;;;23.23;4.20;;;;;;;;;;5011703;28;20081;-66
2021/12/01 13:45:53;;;;;;;18.90;3.35;;;;;;;;;;5029905;28;20060;-70
2021/12/01 13:48:19;;;;;;;21.33;3.88;;;;;;;;;;5028850;28;20515;-67
2021/12/01 13:50:45;;;;;;;18.55;3.40;;;;;;;;;;5030013;28;20150;-65
2021/12/01 13:53:12;;;;;;;22.23;4.55;;;;;;;;;;5029456;28;20052;-66
2021/12/01 13:55:40;;;;;;;15.35;3.47;;;;;;;;;;5030087;28;20053;-66
2021/12/01 13:58:10;;;;;;;20.55;3.67;;;;;;;;;;5012066;28;20057;-68
2021/12/01 14:00:38;;;;;;;17.50;2.80;;;;;;;;;;5029710;28;20057;-64
2021/12/01 14:03:04;;;;;;;17.00;3.05;;;;;;;;;;5029517;28;20417;-70
2021/12/01 14:05:30;;;;;;;;;;;;;;;;;;5030441;28;20041;-65
2021/12/01 14:07:57;;;;;;;19.65;3.17;;;;;;;;;;5030686;28;19921;-66
2021/12/01 14:10:41;;;;;;;10.90;2.60;;;;;;;;;;5029993;28;20141;-64
2021/12/01 14:13:08;;;;;;;20.13;3.60;;;;;;;;;;5029553;28;20045;-66
2021/12/01 14:15:37;;;;;;;18.77;3.70;;;;;;;;;;5030494;28;20107;-66
2021/12/01 14:18:04;;;;;;;18.58;3.45;;;;;;;;;;5032024;28;20053;-65
2021/12/01 14:20:30;;;;;;;;;;;;;;;;;;5035043;28;20057;-64
2021/12/01 14:22:56;;;;;;;14.63;3.20;;;;;;;;;;5034429;28;19921;-70
2021/12/01 14:25:23;;;;;;;20.05;3.58;;;;;;;;;;5033710;28;20048;-69
2021/12/01 14:28:01;;;;;;;19.17;3.40;;;;;;;;;;5034091;28;20053;-63
2021/12/01 14:30:27;;;;;;;20.17;3.67;;;;;;;;;;5035106;28;20413;-63
2021/12/01 14:32:53;;;;;;;21.48;4.03;;;;;;;;;;5016435;28;20430;-62
2021/12/01 14:35:21;;;;;;;20.38;4.53;;;;;;;;;;5033881;28;20045;-66
2021/12/01 14:37:47;;;;;;;27.02;4.05;;;;;;;;;;5034122;28;20095;-63
2021/12/01 14:40:15;;;;;;;24.73;3.72;;;;;;;;;;5033553;28;20091;-68
2021/12/01 14:42:46;;;;;;;17.08;3.85;;;;;;;;;;5034270;28;20104;-67
2021/12/01 14:45:12;;;;;;;20.02;3.60;;;;;;;;;;5033329;28;20041;-65